createdAt,value
2022-12-23T00:04:08.920Z,99087.00
2022-12-23T00:09:12.240Z,99093.91
2022-12-23T00:14:34.572Z,99098.55
2022-12-23T00:19:37.853Z,99104.95
2022-12-23T00:24:41.089Z,99110.64
2022-12-23T00:29:44.572Z,99109.75
2022-12-23T00:34:47.829Z,99117.31
2022-12-23T00:40:09.798Z,99118.52
2022-12-23T00:45:19.098Z,99124.54
2022-12-23T00:50:22.370Z,99129.33
2022-12-23T00:55:25.808Z,99131.73
2022-12-23T01:00:47.900Z,99134.15
2022-12-23T01:05:51.199Z,99141.92
2022-12-23T01:10:55.071Z,99139.70
2022-12-23T01:16:10.596Z,99132.48
2022-12-23T01:21:18.744Z,99129.92
2022-12-23T01:26:21.976Z,99129.91
2022-12-23T01:31:27.094Z,99134.20
2022-12-23T01:36:30.379Z,99136.45
2022-12-23T01:41:53.194Z,99140.04
2022-12-23T01:46:56.437Z,99151.72
2022-12-23T01:51:59.713Z,99155.41
2022-12-23T01:57:03.151Z,99156.90
2022-12-23T02:02:25.319Z,99159.73
2022-12-23T02:07:47.648Z,99164.65
2022-12-23T02:13:27.020Z,99161.65
2022-12-23T02:18:52.016Z,99165.22
2022-12-23T02:24:04.251Z,99161.05
2022-12-23T02:29:10.602Z,99158.64
2022-12-23T02:34:30.633Z,99159.10
2022-12-23T02:39:38.905Z,99160.42
2022-12-23T02:45:05.202Z,99160.55
2022-12-23T02:50:19.710Z,99161.83
2022-12-23T02:55:30.583Z,99163.80
2022-12-23T03:00:36.229Z,99166.85
2022-12-23T03:05:44.316Z,99175.09
2022-12-23T03:10:59.961Z,99177.13
2022-12-23T03:16:03.224Z,99168.13
2022-12-23T03:21:13.433Z,99162.92
2022-12-23T03:26:23.768Z,99168.48
2022-12-23T03:31:32.409Z,99173.71
2022-12-23T03:36:42.167Z,99171.41
2022-12-23T03:41:54.544Z,99170.71
2022-12-23T03:47:14.842Z,99175.48
2022-12-23T03:52:24.557Z,99173.59
2022-12-23T03:57:38.568Z,99172.92
2022-12-23T04:03:25.648Z,99172.42
2022-12-23T04:08:40.712Z,99179.35
2022-12-23T04:13:44.074Z,99180.40
2022-12-23T04:18:47.387Z,99178.38
2022-12-23T04:23:50.695Z,99167.38
2022-12-23T04:28:53.988Z,99164.98
2022-12-23T04:33:57.837Z,99162.59
2022-12-23T04:39:01.077Z,99169.86
2022-12-23T04:44:04.411Z,99176.29
2022-12-23T04:49:07.798Z,99177.35
2022-12-23T04:54:11.074Z,99179.08
2022-12-23T04:59:14.518Z,99185.11
2022-12-23T05:04:17.968Z,99185.27
2022-12-23T05:09:21.280Z,99181.34
2022-12-23T05:14:24.978Z,99177.17
2022-12-23T05:19:28.227Z,99171.92
2022-12-23T05:24:31.541Z,99177.30
2022-12-23T05:29:34.754Z,99180.73
2022-12-23T05:34:40.178Z,99185.09
2022-12-23T05:39:43.555Z,99189.16
2022-12-23T05:44:46.933Z,99190.45
2022-12-23T05:49:51.015Z,99188.90
2022-12-23T05:54:54.360Z,99188.21
2022-12-23T05:59:58.137Z,99186.48
2022-12-23T06:05:01.375Z,99195.41
2022-12-23T06:10:06.725Z,99205.17
2022-12-23T06:15:10.996Z,99207.05
2022-12-23T06:20:20.450Z,99209.34
2022-12-23T06:25:24.409Z,99214.34
2022-12-23T06:30:28.288Z,99216.25
2022-12-23T06:35:31.658Z,99220.42
2022-12-23T06:40:35.006Z,99228.91
2022-12-23T06:45:38.467Z,99228.79
2022-12-23T06:50:41.735Z,99223.47
2022-12-23T06:55:45.154Z,99232.60
2022-12-23T07:00:48.382Z,99239.86
2022-12-23T07:05:52.621Z,99235.56
2022-12-23T07:11:06.485Z,99238.34
2022-12-23T07:16:10.239Z,99235.05
2022-12-23T07:21:21.328Z,99240.76
2022-12-23T07:26:28.254Z,99240.92
2022-12-23T07:31:31.586Z,99238.84
2022-12-23T07:36:35.068Z,99237.64
2022-12-23T07:41:38.433Z,99236.48
2022-12-23T07:46:41.866Z,99241.85
2022-12-23T07:51:45.241Z,99246.44
2022-12-23T07:56:48.675Z,99252.51
2022-12-23T08:01:52.060Z,99255.84
2022-12-23T08:06:55.504Z,99253.48
2022-12-23T08:11:58.767Z,99244.60
2022-12-23T08:17:02.157Z,99238.88
2022-12-23T08:22:05.573Z,99231.79
2022-12-23T08:27:09.458Z,99236.30
2022-12-23T08:32:12.833Z,99244.77
2022-12-23T08:37:17.057Z,99255.23
2022-12-23T08:42:20.777Z,99256.43
2022-12-23T08:47:24.126Z,99254.91
2022-12-23T08:52:28.299Z,99258.11
2022-12-23T08:57:31.654Z,99265.49
2022-12-23T09:02:35.174Z,99256.55
2022-12-23T09:07:38.555Z,99255.05
2022-12-23T09:12:41.950Z,99254.98
2022-12-23T09:17:45.246Z,99249.71
2022-12-23T09:22:48.564Z,99248.41
2022-12-23T09:27:51.915Z,99246.23
2022-12-23T09:32:55.499Z,99245.18
2022-12-23T09:37:58.787Z,99241.09
2022-12-23T09:43:39.589Z,99240.55
2022-12-23T09:48:57.890Z,99237.11
2022-12-23T09:54:16.425Z,99239.91
2022-12-23T09:59:27.045Z,99241.56
2022-12-23T10:04:40.208Z,99237.19
2022-12-23T10:09:46.939Z,99235.14
2022-12-23T10:14:53.051Z,99228.64
2022-12-23T10:20:02.795Z,99226.83
2022-12-23T10:25:14.716Z,99222.56
2022-12-23T10:30:54.026Z,99214.58
2022-12-23T10:36:10.467Z,99206.42
2022-12-23T10:41:22.825Z,99201.33
2022-12-23T10:46:51.138Z,99199.41
2022-12-23T10:52:01.246Z,99199.29
2022-12-23T10:57:06.087Z,99193.73
2022-12-23T11:02:12.693Z,99184.95
2022-12-23T11:07:45.444Z,99180.23
2022-12-23T11:12:52.871Z,99175.18
2022-12-23T11:18:04.192Z,99171.84
2022-12-23T11:23:27.153Z,99168.05
2022-12-23T11:28:31.910Z,99160.95
2022-12-23T11:33:48.219Z,99155.95
2022-12-23T11:38:54.509Z,99148.75
2022-12-23T11:44:11.657Z,99148.45
2022-12-23T11:49:16.698Z,99146.66
2022-12-23T11:54:23.455Z,99147.05
2022-12-23T11:59:33.087Z,99155.21
2022-12-23T12:04:38.687Z,99166.71
2022-12-23T12:09:44.023Z,99169.95
2022-12-23T12:14:50.576Z,99176.13
2022-12-23T12:20:06.407Z,99182.55
2022-12-23T12:25:20.185Z,99178.94
2022-12-23T12:30:23.791Z,99172.98
2022-12-23T12:35:44.708Z,99174.16
2022-12-23T12:40:52.927Z,99174.33
2022-12-23T12:46:12.485Z,99179.98
2022-12-23T12:51:43.953Z,99182.68
2022-12-23T12:56:52.172Z,99179.10
2022-12-23T13:02:33.722Z,99177.75
2022-12-23T13:08:09.557Z,99176.77
2022-12-23T13:13:37.831Z,99181.56
2022-12-23T13:19:06.922Z,99186.56
2022-12-23T13:24:22.545Z,99188.08
2022-12-23T13:29:43.405Z,99189.14
2022-12-23T13:35:06.905Z,99187.87
2022-12-23T13:40:47.590Z,99182.34
2022-12-23T13:45:55.721Z,99176.47
2022-12-23T13:51:18.213Z,99177.71
2022-12-23T13:56:39.432Z,99178.88
2022-12-23T14:01:42.755Z,99178.99
2022-12-23T14:06:48.750Z,99179.95
2022-12-23T14:11:53.154Z,99177.05
2022-12-23T14:17:21.342Z,99175.92
2022-12-23T14:22:49.597Z,99174.55
2022-12-23T14:28:19.970Z,99174.48
2022-12-23T14:33:32.977Z,99176.06
2022-12-23T14:38:36.450Z,99177.88
2022-12-23T14:43:45.803Z,99176.64
2022-12-23T14:48:49.925Z,99177.07
2022-12-23T14:53:59.480Z,99180.36
2022-12-23T14:59:21.686Z,99185.45
2022-12-23T15:04:29.761Z,99193.38
2022-12-23T15:09:45.568Z,99195.14
2022-12-23T15:15:03.674Z,99202.08
2022-12-23T15:20:20.021Z,99207.30
2022-12-23T15:25:34.650Z,99207.20
2022-12-23T15:30:48.844Z,99202.79
2022-12-23T15:35:52.910Z,99200.77
2022-12-23T15:41:01.103Z,99205.96
2022-12-23T15:46:25.007Z,99211.51
2022-12-23T15:52:05.886Z,99226.34
2022-12-23T15:57:03.606Z,99231.18
2022-12-23T16:02:58.867Z,99224.45
2022-12-23T16:07:49.117Z,99227.03
2022-12-23T16:12:53.443Z,99227.74
2022-12-23T16:18:13.644Z,99232.23
2022-12-23T16:23:18.071Z,99236.23
2022-12-23T16:28:26.839Z,99239.85
2022-12-23T16:33:38.303Z,99238.31
2022-12-23T16:38:41.979Z,99234.55
2022-12-23T16:43:51.843Z,99233.52
2022-12-23T16:48:59.424Z,99231.97
2022-12-23T16:54:02.887Z,99237.48
2022-12-23T16:59:06.422Z,99241.60
2022-12-23T17:04:09.857Z,99251.91
2022-12-23T17:09:14.768Z,99253.30
2022-12-23T17:14:21.431Z,99256.22
2022-12-23T17:19:29.367Z,99247.80
2022-12-23T17:24:33.294Z,99251.73
2022-12-23T17:29:36.546Z,99258.92
2022-12-23T17:34:41.182Z,99256.48
2022-12-23T17:39:47.185Z,99258.21
2022-12-23T17:44:51.632Z,99262.49
2022-12-23T17:49:54.995Z,99260.56
2022-12-23T17:54:58.464Z,99248.84
2022-12-23T18:00:01.768Z,99241.42
2022-12-23T18:05:35.354Z,99238.99
2022-12-23T18:10:40.760Z,99237.63
2022-12-23T18:15:45.749Z,99247.55
2022-12-23T18:20:52.433Z,99256.06
2022-12-23T18:25:56.875Z,99259.39
2022-12-23T18:31:00.428Z,99262.75
2022-12-23T18:36:04.543Z,99265.98
2022-12-23T18:41:12.335Z,99269.08
2022-12-23T18:46:15.899Z,99264.08
2022-12-23T18:51:21.916Z,99270.11
2022-12-23T18:56:25.243Z,99278.55
2022-12-23T19:01:28.668Z,99287.64
2022-12-23T19:06:32.017Z,99284.89
2022-12-23T19:11:36.362Z,99285.71
2022-12-23T19:16:39.879Z,99292.03
2022-12-23T19:21:43.519Z,99300.59
2022-12-23T19:26:47.208Z,99309.88
2022-12-23T19:31:50.534Z,99316.23
2022-12-23T19:36:54.089Z,99316.58
2022-12-23T19:41:57.450Z,99325.86
2022-12-23T19:47:01.527Z,99330.50
2022-12-23T19:52:05.053Z,99327.41
2022-12-23T19:57:08.485Z,99326.02
2022-12-23T20:02:17.545Z,99328.61
2022-12-23T20:07:21.435Z,99329.67
2022-12-23T20:12:26.793Z,99328.84
2022-12-23T20:17:33.156Z,99325.75
2022-12-23T20:22:37.858Z,99320.25
2022-12-23T20:27:41.317Z,99323.17
2022-12-23T20:32:45.779Z,99329.70
2022-12-23T20:37:49.231Z,99332.10
2022-12-23T20:42:52.669Z,99337.21
2022-12-23T20:47:56.221Z,99343.05
2022-12-23T20:52:59.581Z,99348.20
2022-12-23T20:58:23.030Z,99348.02
2022-12-23T21:03:26.669Z,99350.39
2022-12-23T21:08:30.359Z,99352.73
2022-12-23T21:13:37.453Z,99356.29
2022-12-23T21:18:44.056Z,99362.59
2022-12-23T21:23:48.246Z,99370.84
2022-12-23T21:28:53.787Z,99377.23
2022-12-23T21:34:00.077Z,99381.85
2022-12-23T21:39:07.791Z,99388.64
2022-12-23T21:44:15.866Z,99387.34
2022-12-23T21:49:20.808Z,99395.44
2022-12-23T21:54:24.831Z,99400.37
2022-12-23T21:59:34.714Z,99401.72
2022-12-23T22:04:38.735Z,99403.94
2022-12-23T22:09:42.145Z,99404.53
2022-12-23T22:14:46.101Z,99409.30
2022-12-23T22:19:50.093Z,99413.05
2022-12-23T22:24:56.998Z,99420.55
2022-12-23T22:30:01.386Z,99421.29
2022-12-23T22:35:06.394Z,99428.75
2022-12-23T22:40:13.356Z,99434.31
2022-12-23T22:45:16.924Z,99436.23
2022-12-23T22:50:20.377Z,99440.02
2022-12-23T22:55:24.417Z,99439.18
2022-12-23T23:00:27.895Z,99431.55
2022-12-23T23:05:31.393Z,99428.24
2022-12-23T23:10:34.725Z,99433.83
2022-12-23T23:15:37.985Z,99436.33
2022-12-23T23:20:41.515Z,99440.13
2022-12-23T23:25:46.258Z,99441.97
2022-12-23T23:31:03.607Z,99445.34
2022-12-23T23:36:12.877Z,99452.95
2022-12-23T23:41:22.503Z,99454.79
2022-12-23T23:46:26.621Z,99452.36
2022-12-23T23:51:30.084Z,99448.91
2022-12-23T23:56:38.198Z,99455.77
